createdAt,value
2018-08-24T00:00:19.258Z,21.77
2018-08-24T00:01:19.231Z,21.78
2018-08-24T00:02:19.247Z,21.77
2018-08-24T00:03:19.255Z,21.80
2018-08-24T00:04:19.187Z,21.82
2018-08-24T00:05:19.186Z,21.73
2018-08-24T00:06:19.151Z,21.75
2018-08-24T00:07:19.216Z,21.82
2018-08-24T00:08:19.211Z,21.80
2018-08-24T00:09:19.175Z,21.80
2018-08-24T00:10:19.100Z,21.80
2018-08-24T00:11:19.135Z,21.78
2018-08-24T00:12:19.124Z,21.77
2018-08-24T00:13:19.147Z,21.80
2018-08-24T00:14:19.088Z,21.82
2018-08-24T00:15:19.110Z,21.80
2018-08-24T00:16:19.035Z,21.80
2018-08-24T00:17:19.024Z,21.84
2018-08-24T00:18:19.013Z,21.75
2018-08-24T00:19:19.073Z,21.67
2018-08-24T00:20:18.994Z,21.75
2018-08-24T00:21:19.020Z,21.73
2018-08-24T00:22:19.029Z,21.67
2018-08-24T00:23:19.047Z,21.75
2018-08-24T00:24:18.945Z,21.69
2018-08-24T00:25:18.939Z,21.77
2018-08-24T00:26:18.927Z,21.74
2018-08-24T00:27:18.909Z,21.67
2018-08-24T00:28:18.901Z,21.73
2018-08-24T00:29:18.913Z,21.71
2018-08-24T00:30:18.906Z,21.78
2018-08-24T00:31:18.902Z,21.71
2018-08-24T00:32:18.861Z,21.78
2018-08-24T00:33:18.908Z,21.71
2018-08-24T00:34:18.957Z,21.77
2018-08-24T00:35:18.870Z,21.73
2018-08-24T00:36:18.818Z,21.66
2018-08-24T00:37:18.853Z,21.71
2018-08-24T00:38:18.872Z,21.69
2018-08-24T00:39:18.864Z,21.69
2018-08-24T00:40:18.811Z,21.71
2018-08-24T00:41:18.761Z,21.73
2018-08-24T00:42:18.916Z,21.73
2018-08-24T00:43:18.770Z,21.65
2018-08-24T00:44:18.853Z,21.66
2018-08-24T00:45:18.772Z,21.69
2018-08-24T00:46:18.775Z,21.56
2018-08-24T00:47:18.739Z,21.63
2018-08-24T00:48:18.732Z,21.65
2018-08-24T00:49:18.757Z,21.66
2018-08-24T00:50:18.686Z,21.65
2018-08-24T00:51:18.704Z,21.65
2018-08-24T00:52:18.639Z,21.65
2018-08-24T00:53:18.652Z,21.58
2018-08-24T00:54:18.649Z,21.60
2018-08-24T00:55:18.600Z,21.56
2018-08-24T00:56:18.589Z,21.51
2018-08-24T00:57:18.577Z,21.62
2018-08-24T00:58:18.570Z,21.63
2018-08-24T00:59:18.577Z,21.66
2018-08-24T01:00:18.546Z,21.60
2018-08-24T01:01:18.530Z,21.59
2018-08-24T01:02:18.523Z,21.60
2018-08-24T01:03:18.572Z,21.59
2018-08-24T01:04:18.581Z,21.59
2018-08-24T01:05:18.539Z,21.55
2018-08-24T01:06:18.531Z,21.58
2018-08-24T01:07:18.491Z,21.60
2018-08-24T01:08:18.456Z,21.71
2018-08-24T01:09:18.504Z,21.66
2018-08-24T01:10:18.454Z,21.65
2018-08-24T01:11:18.433Z,21.62
2018-08-24T01:12:18.467Z,21.58
2018-08-24T01:13:18.414Z,21.65
2018-08-24T01:14:18.477Z,21.63
2018-08-24T01:15:18.426Z,21.59
2018-08-24T01:16:18.443Z,21.66
2018-08-24T01:17:18.356Z,21.47
2018-08-24T01:18:18.368Z,21.53
2018-08-24T01:19:18.360Z,21.48
2018-08-24T01:20:18.371Z,21.55
2018-08-24T01:21:18.348Z,21.60
2018-08-24T01:22:18.329Z,21.56
2018-08-24T01:23:18.331Z,21.50
2018-08-24T01:24:18.320Z,21.55
2018-08-24T01:25:18.321Z,21.62
2018-08-24T01:26:18.334Z,21.56
2018-08-24T01:27:18.256Z,21.55
2018-08-24T01:28:18.285Z,21.45
2018-08-24T01:29:18.269Z,21.50
2018-08-24T01:30:18.283Z,21.50
2018-08-24T01:31:18.254Z,21.59
2018-08-24T01:32:18.187Z,21.58
2018-08-24T01:33:18.208Z,21.48
2018-08-24T01:34:18.242Z,21.48
2018-08-24T01:35:18.237Z,21.50
2018-08-24T01:36:18.212Z,21.45
2018-08-24T01:37:18.221Z,21.48
2018-08-24T01:38:18.155Z,21.63
2018-08-24T01:39:18.140Z,21.50
2018-08-24T01:40:18.154Z,21.53
2018-08-24T01:41:18.167Z,21.53
2018-08-24T01:42:18.124Z,21.30
2018-08-24T01:43:18.062Z,21.30
2018-08-24T01:44:18.063Z,21.40
2018-08-24T01:45:18.043Z,21.38
2018-08-24T01:46:18.073Z,21.45
2018-08-24T01:47:18.021Z,21.35
2018-08-24T01:48:18.013Z,21.40
2018-08-24T01:49:17.999Z,21.41
2018-08-24T01:50:18.051Z,21.44
2018-08-24T01:51:17.971Z,21.40
2018-08-24T01:52:18.013Z,21.45
2018-08-24T01:53:18.001Z,21.41
2018-08-24T01:54:17.982Z,21.38
2018-08-24T01:55:17.933Z,21.35
2018-08-24T01:56:17.971Z,21.35
2018-08-24T01:57:17.943Z,21.32
2018-08-24T01:58:17.901Z,21.30
2018-08-24T01:59:17.892Z,21.30
2018-08-24T02:00:17.906Z,21.29
2018-08-24T02:01:17.895Z,21.26
2018-08-24T02:02:17.889Z,21.22
2018-08-24T02:03:17.840Z,21.25
2018-08-24T02:04:17.827Z,21.20
2018-08-24T02:05:17.822Z,21.25
2018-08-24T02:06:17.839Z,21.34
2018-08-24T02:07:17.802Z,21.28
2018-08-24T02:08:17.796Z,21.22
2018-08-24T02:09:17.777Z,21.23
2018-08-24T02:10:17.810Z,21.18
2018-08-24T02:11:17.812Z,21.16
2018-08-24T02:12:17.797Z,21.23
2018-08-24T02:13:17.800Z,21.23
2018-08-24T02:14:17.772Z,21.20
2018-08-24T02:15:17.735Z,21.26
2018-08-24T02:16:17.705Z,21.25
2018-08-24T02:17:17.709Z,21.23
2018-08-24T02:18:17.674Z,21.25
2018-08-24T02:19:17.664Z,21.22
2018-08-24T02:20:17.658Z,21.22
2018-08-24T02:21:17.639Z,21.16
2018-08-24T02:22:17.677Z,21.19
2018-08-24T02:23:17.678Z,21.11
2018-08-24T02:24:17.613Z,21.19
2018-08-24T02:25:17.600Z,21.26
2018-08-24T02:26:17.590Z,21.16
2018-08-24T02:27:17.585Z,21.20
2018-08-24T02:28:17.633Z,21.23
2018-08-24T02:29:17.861Z,21.07
2018-08-24T02:30:17.592Z,21.07
2018-08-24T02:31:17.608Z,21.04
2018-08-24T02:32:17.585Z,21.11
2018-08-24T02:33:17.554Z,21.18
2018-08-24T02:34:17.555Z,21.05
2018-08-24T02:35:17.558Z,21.04
2018-08-24T02:36:17.500Z,21.07
2018-08-24T02:37:17.519Z,21.03
2018-08-24T02:38:17.449Z,20.97
2018-08-24T02:39:17.447Z,20.98
2018-08-24T02:40:17.430Z,20.98
2018-08-24T02:41:17.498Z,20.97
2018-08-24T02:42:17.466Z,20.93
2018-08-24T02:43:17.449Z,21.05
2018-08-24T02:44:17.475Z,21.00
2018-08-24T02:45:17.424Z,21.00
2018-08-24T02:46:17.409Z,21.01
2018-08-24T02:47:17.399Z,20.93
2018-08-24T02:48:17.391Z,20.95
2018-08-24T02:49:17.343Z,20.95
2018-08-24T02:50:17.342Z,20.97
2018-08-24T02:51:17.350Z,20.95
2018-08-24T02:52:17.353Z,20.95
2018-08-24T02:53:17.290Z,20.93
2018-08-24T02:54:17.302Z,20.93
2018-08-24T02:55:17.272Z,20.85
2018-08-24T02:56:17.282Z,20.85
2018-08-24T02:57:17.293Z,20.77
2018-08-24T02:58:17.250Z,20.79
2018-08-24T02:59:17.221Z,20.73
2018-08-24T03:00:17.242Z,20.71
2018-08-24T03:01:17.198Z,20.83
2018-08-24T03:02:17.219Z,20.83
2018-08-24T03:03:17.197Z,20.82
2018-08-24T03:04:17.212Z,20.82
2018-08-24T03:05:17.360Z,20.74
2018-08-24T03:06:17.168Z,20.71
2018-08-24T03:07:17.131Z,20.70
2018-08-24T03:08:17.239Z,20.77
2018-08-24T03:09:17.163Z,20.71
2018-08-24T03:10:17.172Z,20.73
2018-08-24T03:11:17.082Z,20.85
2018-08-24T03:12:17.111Z,20.85
2018-08-24T03:13:17.098Z,20.77
2018-08-24T03:14:17.162Z,20.73
2018-08-24T03:15:17.337Z,20.68
2018-08-24T03:16:17.065Z,20.75
2018-08-24T03:17:17.029Z,20.74
2018-08-24T03:18:17.060Z,20.71
2018-08-24T03:19:17.027Z,20.71
2018-08-24T03:20:17.019Z,20.74
2018-08-24T03:21:17.008Z,20.70
2018-08-24T03:22:16.986Z,20.74
2018-08-24T03:23:17.002Z,20.70
2018-08-24T03:24:16.982Z,20.71
2018-08-24T03:25:16.959Z,20.71
2018-08-24T03:26:16.991Z,20.70
2018-08-24T03:27:16.937Z,20.75
2018-08-24T03:28:16.919Z,20.75
2018-08-24T03:29:16.934Z,20.77
2018-08-24T03:30:16.907Z,20.80
2018-08-24T03:31:16.954Z,20.86
2018-08-24T03:32:16.929Z,20.88
2018-08-24T03:33:16.857Z,20.83
2018-08-24T03:34:16.828Z,20.98
2018-08-24T03:35:16.860Z,20.92
2018-08-24T03:36:16.888Z,20.89
2018-08-24T03:37:16.855Z,20.85
2018-08-24T03:38:16.842Z,20.85
2018-08-24T03:39:16.810Z,20.90
2018-08-24T03:40:16.813Z,20.83
2018-08-24T03:41:16.797Z,20.83
2018-08-24T03:42:17.063Z,20.90
2018-08-24T03:43:16.808Z,20.97
2018-08-24T03:44:16.779Z,20.97
2018-08-24T03:45:16.756Z,20.97
2018-08-24T03:46:16.703Z,20.86
2018-08-24T03:47:16.989Z,20.89
2018-08-24T03:48:16.671Z,20.93
2018-08-24T03:49:16.701Z,20.98
2018-08-24T03:50:16.679Z,20.93
2018-08-24T03:51:16.696Z,20.85
2018-08-24T03:52:16.648Z,20.83
2018-08-24T03:53:16.751Z,20.83
2018-08-24T03:54:16.606Z,20.95
2018-08-24T03:55:16.650Z,20.95
2018-08-24T03:56:16.642Z,20.93
2018-08-24T03:57:16.621Z,21.00
2018-08-24T03:58:16.640Z,20.86
2018-08-24T03:59:16.615Z,20.98
2018-08-24T04:00:16.601Z,20.97
2018-08-24T04:01:16.584Z,21.03
2018-08-24T04:02:16.559Z,20.98
2018-08-24T04:03:16.607Z,20.95
2018-08-24T04:04:16.540Z,20.92
2018-08-24T04:05:16.478Z,21.00
2018-08-24T04:06:16.528Z,20.82
2018-08-24T04:07:16.488Z,20.93
2018-08-24T04:08:16.482Z,20.83
2018-08-24T04:09:16.537Z,20.93
2018-08-24T04:10:16.448Z,20.92
2018-08-24T04:11:16.461Z,20.97
2018-08-24T04:12:16.452Z,21.01
2018-08-24T04:13:16.458Z,20.97
2018-08-24T04:14:16.408Z,21.03
2018-08-24T04:15:16.420Z,20.98
2018-08-24T04:16:16.362Z,20.93
2018-08-24T04:17:16.349Z,20.90
2018-08-24T04:18:16.386Z,20.85
2018-08-24T04:19:16.342Z,20.83
2018-08-24T04:20:16.388Z,20.83
2018-08-24T04:21:16.349Z,20.70
2018-08-24T04:23:32.523Z,20.77
2018-08-24T04:24:32.501Z,20.75
2018-08-24T04:25:32.491Z,20.83
2018-08-24T04:26:32.465Z,20.83
2018-08-24T04:27:32.451Z,20.95
2018-08-24T04:28:32.465Z,20.88
2018-08-24T04:29:32.436Z,20.88
2018-08-24T04:30:32.438Z,20.92
2018-08-24T04:31:32.417Z,20.98
2018-08-24T04:32:32.396Z,21.00
2018-08-24T04:33:32.386Z,20.89
2018-08-24T04:34:32.399Z,20.83
2018-08-24T04:35:32.369Z,20.88
2018-08-24T04:36:32.350Z,20.93
2018-08-24T04:37:32.343Z,20.90
2018-08-24T04:38:32.348Z,20.88
2018-08-24T04:39:32.410Z,20.82
2018-08-24T04:40:32.306Z,20.89
2018-08-24T04:41:32.315Z,20.85
2018-08-24T04:42:32.288Z,20.88
2018-08-24T04:43:32.276Z,20.95
2018-08-24T04:44:32.291Z,20.93
2018-08-24T04:45:32.332Z,20.98
2018-08-24T04:46:32.242Z,21.03
2018-08-24T04:47:32.237Z,20.97
2018-08-24T04:48:32.218Z,20.95
2018-08-24T04:49:32.241Z,20.88
2018-08-24T04:50:32.207Z,20.86
2018-08-24T04:51:32.291Z,20.82
2018-08-24T04:52:32.175Z,20.89
2018-08-24T04:53:32.168Z,20.93
2018-08-24T04:54:32.165Z,20.88
2018-08-24T04:55:32.163Z,20.90
2018-08-24T04:56:32.138Z,20.88
2018-08-24T04:57:32.131Z,20.98
2018-08-24T04:58:32.112Z,20.98
2018-08-24T04:59:32.101Z,20.88
2018-08-24T05:00:32.112Z,20.88
2018-08-24T05:01:32.083Z,20.83
2018-08-24T05:02:32.076Z,20.90
2018-08-24T05:03:32.059Z,20.93
2018-08-24T05:04:32.043Z,20.93
2018-08-24T05:05:32.069Z,21.03
2018-08-24T05:06:32.026Z,21.01
2018-08-24T05:07:32.015Z,21.03
2018-08-24T05:08:32.004Z,21.10
2018-08-24T05:09:31.987Z,20.95
2018-08-24T05:10:32.012Z,21.00
2018-08-24T05:11:31.964Z,21.03
2018-08-24T05:12:32.197Z,20.98
2018-08-24T05:13:31.965Z,21.05
2018-08-24T05:14:31.936Z,21.00
2018-08-24T05:15:31.921Z,21.03
2018-08-24T05:16:31.920Z,20.98
2018-08-24T05:17:31.917Z,21.00
2018-08-24T05:18:31.905Z,20.97
2018-08-24T05:19:31.874Z,21.07
2018-08-24T05:20:31.875Z,20.95
2018-08-24T05:21:31.866Z,20.98
2018-08-24T05:22:31.869Z,21.03
2018-08-24T05:23:31.839Z,21.03
2018-08-24T05:24:31.839Z,21.05
2018-08-24T05:25:31.817Z,21.03
2018-08-24T05:26:31.824Z,21.03
2018-08-24T05:27:32.061Z,21.08
2018-08-24T05:28:31.779Z,21.07
2018-08-24T05:29:31.767Z,21.10
2018-08-24T05:30:31.756Z,21.04
2018-08-24T05:31:31.760Z,20.98
2018-08-24T05:32:31.737Z,21.04
2018-08-24T05:33:31.740Z,21.01
2018-08-24T05:34:31.714Z,21.00
2018-08-24T05:35:31.773Z,21.01
2018-08-24T05:36:31.697Z,21.05
2018-08-24T05:37:31.717Z,20.98
2018-08-24T05:38:31.677Z,21.07
2018-08-24T05:39:31.658Z,21.05
2018-08-24T05:40:31.664Z,21.10
2018-08-24T05:41:31.691Z,21.11
2018-08-24T05:42:31.658Z,21.20
2018-08-24T05:43:31.702Z,21.10
2018-08-24T05:44:31.604Z,21.08
2018-08-24T05:45:31.595Z,21.03
2018-08-24T05:46:31.586Z,21.10
2018-08-24T05:47:31.577Z,21.10
2018-08-24T05:48:31.569Z,21.05
2018-08-24T05:49:31.587Z,21.14
2018-08-24T05:50:31.550Z,21.08
2018-08-24T05:51:31.526Z,21.08
2018-08-24T05:52:31.515Z,21.11
2018-08-24T05:53:31.511Z,21.11
2018-08-24T05:54:31.496Z,21.01
2018-08-24T05:55:31.581Z,21.05
2018-08-24T05:56:31.474Z,20.95
2018-08-24T05:57:31.467Z,20.97
2018-08-24T05:58:31.475Z,21.14
2018-08-24T05:59:31.446Z,21.04
2018-08-24T06:00:31.431Z,20.98
2018-08-24T06:01:31.426Z,21.14
2018-08-24T06:02:31.409Z,21.14
2018-08-24T06:03:31.451Z,21.11
2018-08-24T06:04:31.408Z,21.05
2018-08-24T06:05:31.403Z,21.01
2018-08-24T06:06:31.366Z,20.98
2018-08-24T06:07:31.351Z,21.04
2018-08-24T06:08:31.372Z,21.13
2018-08-24T06:09:31.338Z,21.03
2018-08-24T06:10:31.325Z,20.97
2018-08-24T06:11:31.306Z,21.07
2018-08-24T06:12:31.299Z,21.08
2018-08-24T06:13:31.312Z,21.01
2018-08-24T06:14:31.286Z,21.08
2018-08-24T06:15:31.263Z,21.04
2018-08-24T06:16:31.268Z,21.08
2018-08-24T06:17:31.278Z,21.04
2018-08-24T06:18:31.235Z,21.07
2018-08-24T06:19:31.228Z,21.20
2018-08-24T06:20:31.219Z,21.11
2018-08-24T06:21:31.211Z,21.18
2018-08-24T06:22:31.219Z,21.05
2018-08-24T06:23:31.200Z,21.08
2018-08-24T06:24:31.235Z,21.18
2018-08-24T06:25:31.157Z,21.18
2018-08-24T06:26:31.146Z,21.19
2018-08-24T06:27:31.135Z,21.20
2018-08-24T06:28:31.128Z,21.20
2018-08-24T06:29:31.153Z,21.14
2018-08-24T06:30:31.119Z,21.26
2018-08-24T06:31:31.096Z,21.20
2018-08-24T06:32:31.078Z,21.19
2018-08-24T06:33:31.104Z,21.25
2018-08-24T06:34:31.058Z,21.10
2018-08-24T06:35:31.063Z,21.23
2018-08-24T06:36:31.040Z,21.20
2018-08-24T06:37:31.035Z,21.13
2018-08-24T06:38:31.018Z,21.23
2018-08-24T06:39:31.028Z,21.25
2018-08-24T06:40:30.997Z,21.18
2018-08-24T06:41:30.982Z,21.22
2018-08-24T06:42:31.084Z,21.22
2018-08-24T06:43:30.959Z,21.18
2018-08-24T06:44:30.973Z,21.19
2018-08-24T06:45:30.939Z,21.16
2018-08-24T06:46:30.928Z,21.10
2018-08-24T06:47:30.969Z,21.22
2018-08-24T06:48:31.180Z,21.22
2018-08-24T06:49:30.898Z,21.29
2018-08-24T06:50:30.907Z,21.40
2018-08-24T06:51:30.878Z,21.37
2018-08-24T06:52:30.865Z,21.37
2018-08-24T06:53:30.906Z,21.30
2018-08-24T06:54:30.843Z,21.32
2018-08-24T06:55:30.846Z,21.28
2018-08-24T06:56:30.821Z,21.32
2018-08-24T06:57:30.812Z,21.29
2018-08-24T06:58:30.819Z,21.25
2018-08-24T06:59:30.827Z,21.29
2018-08-24T07:00:30.805Z,21.28
2018-08-24T07:01:30.767Z,21.30
2018-08-24T07:02:30.749Z,21.28
2018-08-24T07:03:30.768Z,21.30
2018-08-24T07:04:30.724Z,21.25
2018-08-24T07:05:30.741Z,21.28
2018-08-24T07:06:30.730Z,21.30
2018-08-24T07:07:30.699Z,21.26
2018-08-24T07:08:30.689Z,21.26
2018-08-24T07:09:30.680Z,21.34
2018-08-24T07:10:30.690Z,21.34
2018-08-24T07:11:30.657Z,21.26
2018-08-24T07:12:30.644Z,21.28
2018-08-24T07:13:30.635Z,21.30
2018-08-24T07:14:30.626Z,21.35
2018-08-24T07:15:30.639Z,21.30
2018-08-24T07:16:30.625Z,21.20
2018-08-24T07:17:30.585Z,21.28
2018-08-24T07:18:30.575Z,21.29
2018-08-24T07:19:30.572Z,21.26
2018-08-24T07:20:30.557Z,21.18
2018-08-24T07:21:30.575Z,21.16
2018-08-24T07:22:30.532Z,21.20
2018-08-24T07:23:30.523Z,21.26
2018-08-24T07:24:30.513Z,21.20
2018-08-24T07:25:30.497Z,21.20
2018-08-24T07:26:30.485Z,21.14
2018-08-24T07:27:30.496Z,21.16
2018-08-24T07:28:30.467Z,21.22
2018-08-24T07:29:30.456Z,21.23
2018-08-24T07:30:30.441Z,21.20
2018-08-24T07:31:30.438Z,21.18
2018-08-24T07:32:30.445Z,21.22
2018-08-24T07:33:30.412Z,21.22
2018-08-24T07:34:30.422Z,21.25
2018-08-24T07:35:30.391Z,21.20
2018-08-24T07:36:30.404Z,21.25
2018-08-24T07:37:30.417Z,21.22
2018-08-24T07:38:30.362Z,21.26
2018-08-24T07:39:30.349Z,21.29
2018-08-24T07:40:30.337Z,21.23
2018-08-24T07:41:30.662Z,21.32
2018-08-24T07:42:30.317Z,21.38
2018-08-24T07:43:30.310Z,21.30
2018-08-24T07:44:30.297Z,21.35
2018-08-24T07:45:30.279Z,21.32
2018-08-24T07:46:30.268Z,21.30
2018-08-24T07:47:30.283Z,21.26
2018-08-24T07:48:30.244Z,21.34
2018-08-24T07:49:30.240Z,21.26
2018-08-24T07:50:30.229Z,21.32
2018-08-24T07:51:30.222Z,21.25
2018-08-24T07:52:30.205Z,21.34
2018-08-24T07:53:30.219Z,21.30
2018-08-24T07:54:30.178Z,21.34
2018-08-24T07:55:30.177Z,21.28
2018-08-24T07:56:30.156Z,21.25
2018-08-24T07:57:30.314Z,21.32
2018-08-24T07:58:30.138Z,21.32
2018-08-24T07:59:30.123Z,21.30
2018-08-24T08:00:30.119Z,21.32
2018-08-24T08:01:30.116Z,21.26
2018-08-24T08:02:30.106Z,21.35
2018-08-24T08:03:30.099Z,21.41
2018-08-24T08:04:30.068Z,21.34
2018-08-24T08:05:30.176Z,21.47
2018-08-24T08:06:30.051Z,21.40
2018-08-24T08:07:30.038Z,21.37
2018-08-24T08:08:30.055Z,21.35
2018-08-24T08:09:30.014Z,21.37
2018-08-24T08:10:30.006Z,21.35
2018-08-24T08:11:29.994Z,21.35
2018-08-24T08:12:30.034Z,21.32
2018-08-24T08:13:30.022Z,21.32
2018-08-24T08:14:29.965Z,21.32
2018-08-24T08:15:29.961Z,21.28
2018-08-24T08:16:29.939Z,21.29
2018-08-24T08:17:29.928Z,21.26
2018-08-24T08:18:29.980Z,21.23
2018-08-24T08:19:29.909Z,21.28
2018-08-24T08:20:29.919Z,21.28
2018-08-24T08:21:29.887Z,21.37
2018-08-24T08:22:29.879Z,21.35
2018-08-24T08:23:29.888Z,21.37
2018-08-24T08:24:29.857Z,21.41
2018-08-24T08:25:29.840Z,21.32
2018-08-24T08:26:29.830Z,21.44
2018-08-24T08:27:29.821Z,21.40
2018-08-24T08:28:29.808Z,21.30
2018-08-24T08:29:29.825Z,21.35
2018-08-24T08:30:29.787Z,21.38
2018-08-24T08:31:29.777Z,21.26
2018-08-24T08:32:29.767Z,21.22
2018-08-24T08:33:29.770Z,21.29
2018-08-24T08:34:29.772Z,21.26
2018-08-24T08:35:29.763Z,21.28
2018-08-24T08:36:29.722Z,21.28
2018-08-24T08:37:29.717Z,21.30
2018-08-24T08:38:29.702Z,21.29
2018-08-24T08:39:29.719Z,21.26
2018-08-24T08:40:29.675Z,21.28
2018-08-24T08:41:29.788Z,21.29
2018-08-24T08:42:29.651Z,21.29
2018-08-24T08:43:29.662Z,21.40
2018-08-24T08:44:29.657Z,21.43
2018-08-24T08:45:29.721Z,21.50
2018-08-24T08:46:29.617Z,21.47
2018-08-24T08:47:29.607Z,21.47
2018-08-24T08:48:29.588Z,21.50
2018-08-24T08:49:29.597Z,21.50
2018-08-24T08:50:29.564Z,21.51
2018-08-24T08:51:29.563Z,21.47
2018-08-24T08:52:29.543Z,21.55
2018-08-24T08:53:29.565Z,21.55
2018-08-24T08:54:29.523Z,21.56
2018-08-24T08:55:29.543Z,21.60
2018-08-24T08:56:29.524Z,21.62
2018-08-24T08:57:29.487Z,21.62
2018-08-24T08:58:29.483Z,21.59
2018-08-24T08:59:29.488Z,21.59
2018-08-24T09:00:29.472Z,21.48
2018-08-24T09:01:29.458Z,21.48
2018-08-24T09:02:29.441Z,21.56
2018-08-24T09:03:29.429Z,21.63
2018-08-24T09:04:29.417Z,21.65
2018-08-24T09:05:29.424Z,21.47
2018-08-24T09:06:29.442Z,21.53
2018-08-24T09:07:29.378Z,21.60
2018-08-24T09:08:29.371Z,21.47
2018-08-24T09:09:29.357Z,21.51
2018-08-24T09:10:29.367Z,21.50
2018-08-24T09:11:29.338Z,21.43
2018-08-24T09:12:29.329Z,21.47
2018-08-24T09:13:29.317Z,21.51
2018-08-24T09:14:29.302Z,21.56
2018-08-24T09:15:29.309Z,21.66
2018-08-24T09:16:29.571Z,21.60
2018-08-24T09:17:29.268Z,21.58
2018-08-24T09:18:29.295Z,21.56
2018-08-24T09:19:29.247Z,21.50
2018-08-24T09:20:29.241Z,21.45
2018-08-24T09:21:29.240Z,21.55
2018-08-24T09:22:29.243Z,21.47
2018-08-24T09:23:29.208Z,21.56
2018-08-24T09:24:29.203Z,21.66
2018-08-24T09:25:29.273Z,21.55
2018-08-24T09:26:29.206Z,21.53
2018-08-24T09:27:29.167Z,21.51
2018-08-24T09:28:29.149Z,21.65
2018-08-24T09:29:29.140Z,21.62
2018-08-24T09:30:29.131Z,21.63
2018-08-24T09:31:29.150Z,21.65
2018-08-24T09:32:29.167Z,21.55
2018-08-24T09:33:29.097Z,21.55
2018-08-24T09:34:29.097Z,21.50
2018-08-24T09:35:29.115Z,21.43
2018-08-24T09:36:29.079Z,21.48
2018-08-24T09:37:29.051Z,21.48
2018-08-24T09:38:29.038Z,21.51
2018-08-24T09:39:29.033Z,21.56
2018-08-24T09:40:29.065Z,21.55
2018-08-24T09:41:29.009Z,21.51
2018-08-24T09:42:29.004Z,21.62
2018-08-24T09:43:28.981Z,21.62
2018-08-24T09:44:28.993Z,21.58
2018-08-24T09:45:28.965Z,21.62
2018-08-24T09:46:28.997Z,21.62
2018-08-24T09:47:28.968Z,21.63
2018-08-24T09:48:28.941Z,21.67
2018-08-24T09:49:28.949Z,21.62
2018-08-24T09:50:28.907Z,21.65
2018-08-24T09:51:28.894Z,21.66
2018-08-24T09:52:28.892Z,21.67
2018-08-24T09:53:28.875Z,21.75
2018-08-24T09:54:28.887Z,21.73
2018-08-24T09:55:28.861Z,21.69
2018-08-24T09:56:28.847Z,21.75
2018-08-24T09:57:28.830Z,21.75
2018-08-24T09:58:28.831Z,21.80
2018-08-24T09:59:28.838Z,21.80
2018-08-24T10:00:28.799Z,21.85
2018-08-24T10:01:28.787Z,21.84
2018-08-24T10:02:28.818Z,21.80
2018-08-24T10:03:28.771Z,21.88
2018-08-24T10:04:28.766Z,21.91
2018-08-24T10:05:28.745Z,21.90
2018-08-24T10:06:28.897Z,21.85
2018-08-24T10:07:28.726Z,21.85
2018-08-24T10:08:28.747Z,21.82
2018-08-24T10:09:28.707Z,21.84
2018-08-24T10:10:28.694Z,21.78
2018-08-24T10:11:28.717Z,21.74
2018-08-24T10:12:28.667Z,21.80
2018-08-24T10:13:28.662Z,21.82
2018-08-24T10:14:28.649Z,21.82
2018-08-24T10:15:28.638Z,21.77
2018-08-24T10:16:28.625Z,21.84
2018-08-24T10:17:28.642Z,21.82
2018-08-24T10:18:28.628Z,21.77
2018-08-24T10:19:28.589Z,21.77
2018-08-24T10:20:28.580Z,21.77
2018-08-24T10:21:28.573Z,21.71
2018-08-24T10:22:28.558Z,21.73
2018-08-24T10:23:28.591Z,21.78
2018-08-24T10:24:28.534Z,21.80
2018-08-24T10:25:28.525Z,21.80
2018-08-24T10:26:28.517Z,21.78
2018-08-24T10:27:28.502Z,21.82
2018-08-24T10:28:28.499Z,21.80
2018-08-24T10:29:28.697Z,21.82
2018-08-24T10:30:28.475Z,21.85
2018-08-24T10:31:28.457Z,21.93
2018-08-24T10:32:28.445Z,21.85
2018-08-24T10:33:28.459Z,21.88
2018-08-24T10:34:28.427Z,21.88
2018-08-24T10:35:28.414Z,21.82
2018-08-24T10:36:28.409Z,21.93
2018-08-24T10:37:28.396Z,21.96
2018-08-24T10:38:28.404Z,21.97
2018-08-24T10:39:28.373Z,21.97
2018-08-24T10:40:28.368Z,21.85
2018-08-24T10:41:28.350Z,21.88
2018-08-24T10:42:28.337Z,21.97
2018-08-24T10:43:28.324Z,21.98
2018-08-24T10:44:28.334Z,22.03
2018-08-24T10:45:28.308Z,22.03
2018-08-24T10:46:28.306Z,22.03
2018-08-24T10:47:28.352Z,22.00
2018-08-24T10:48:28.278Z,21.96
2018-08-24T10:49:28.393Z,21.97
2018-08-24T10:50:28.254Z,22.01
2018-08-24T10:51:28.244Z,22.04
2018-08-24T10:52:28.227Z,22.04
2018-08-24T10:53:28.218Z,22.03
2018-08-24T10:54:28.229Z,22.03
2018-08-24T10:55:28.209Z,22.06
2018-08-24T10:56:28.189Z,22.03
2018-08-24T10:57:28.188Z,22.03
2018-08-24T10:58:28.162Z,22.06
2018-08-24T10:59:28.148Z,22.03
2018-08-24T11:00:28.177Z,22.04
2018-08-24T11:01:28.126Z,22.06
2018-08-24T11:02:28.127Z,22.09
2018-08-24T11:03:28.106Z,21.98
2018-08-24T11:04:28.097Z,22.07
2018-08-24T11:05:28.215Z,21.98
2018-08-24T11:06:28.076Z,22.12
2018-08-24T11:07:28.242Z,22.11
2018-08-24T11:08:28.052Z,22.13
2018-08-24T11:09:28.049Z,22.15
2018-08-24T11:10:28.047Z,22.13
2018-08-24T11:11:28.021Z,22.12
2018-08-24T11:12:28.015Z,22.04
2018-08-24T11:13:28.092Z,22.07
2018-08-24T11:14:27.988Z,22.06
2018-08-24T11:15:28.116Z,22.07
2018-08-24T11:16:27.994Z,22.03
2018-08-24T11:17:28.079Z,22.03
2018-08-24T11:18:27.948Z,21.98
2018-08-24T11:19:27.932Z,22.09
2018-08-24T11:20:27.919Z,22.11
2018-08-24T11:21:27.930Z,22.11
2018-08-24T11:22:27.901Z,22.06
2018-08-24T11:23:27.887Z,22.06
2018-08-24T11:24:27.874Z,22.01
2018-08-24T11:25:27.875Z,22.03
2018-08-24T11:26:27.876Z,22.04
2018-08-24T11:27:27.844Z,22.06
2018-08-24T11:28:27.837Z,21.98
2018-08-24T11:29:27.867Z,22.07
2018-08-24T11:30:27.821Z,22.06
2018-08-24T11:31:27.806Z,22.01
2018-08-24T11:32:27.877Z,22.01
2018-08-24T11:33:27.782Z,22.03
2018-08-24T11:34:27.773Z,22.13
2018-08-24T11:35:27.765Z,22.09
2018-08-24T11:36:27.835Z,22.12
2018-08-24T11:37:27.731Z,22.12
2018-08-24T11:38:27.745Z,22.06
2018-08-24T11:39:27.710Z,22.15
2018-08-24T11:40:27.700Z,22.11
2018-08-24T11:41:27.688Z,22.04
2018-08-24T11:42:27.701Z,22.06
2018-08-24T11:43:27.673Z,22.11
2018-08-24T11:44:27.698Z,22.01
2018-08-24T11:45:27.655Z,22.11
2018-08-24T11:46:27.637Z,22.06
2018-08-24T11:47:27.647Z,22.12
2018-08-24T11:48:27.665Z,22.03
2018-08-24T11:49:27.611Z,21.98
2018-08-24T11:50:27.601Z,22.04
2018-08-24T11:51:27.586Z,22.13
2018-08-24T11:52:27.656Z,22.03
2018-08-24T11:53:27.557Z,22.11
2018-08-24T11:54:27.569Z,22.13
2018-08-24T11:55:27.543Z,22.11
2018-08-24T11:56:27.528Z,22.11
2018-08-24T11:57:27.556Z,22.13
2018-08-24T11:58:27.509Z,22.09
2018-08-24T11:59:27.502Z,22.07
2018-08-24T12:00:27.491Z,22.13
2018-08-24T12:01:27.498Z,22.07
2018-08-24T12:02:27.463Z,22.13
2018-08-24T12:03:27.478Z,22.07
2018-08-24T12:04:27.436Z,22.12
2018-08-24T12:05:27.433Z,22.11
2018-08-24T12:06:27.434Z,22.04
2018-08-24T12:07:27.408Z,22.16
2018-08-24T12:08:27.477Z,22.04
2018-08-24T12:09:27.418Z,22.06
2018-08-24T12:10:27.385Z,22.13
2018-08-24T12:11:27.372Z,22.09
2018-08-24T12:12:27.395Z,22.12
2018-08-24T12:13:27.375Z,22.07
2018-08-24T12:14:27.328Z,22.11
2018-08-24T12:15:27.325Z,22.04
2018-08-24T12:16:27.306Z,22.01
2018-08-24T12:17:27.298Z,22.04
2018-08-24T12:18:27.395Z,22.03
2018-08-24T12:19:27.273Z,22.04
2018-08-24T12:20:27.271Z,22.04
2018-08-24T12:21:27.297Z,22.01
2018-08-24T12:22:27.246Z,21.98
2018-08-24T12:23:27.253Z,22.01
2018-08-24T12:24:27.310Z,22.04
2018-08-24T12:25:27.209Z,21.98
2018-08-24T12:26:27.201Z,21.97
2018-08-24T12:27:27.193Z,21.93
2018-08-24T12:28:27.173Z,21.97
2018-08-24T12:29:27.185Z,22.04
2018-08-24T12:30:27.155Z,21.97
2018-08-24T12:31:27.143Z,21.97
2018-08-24T12:32:27.131Z,22.06
2018-08-24T12:33:27.119Z,21.98
2018-08-24T12:34:27.114Z,21.98
2018-08-24T12:35:27.119Z,22.00
2018-08-24T12:36:27.095Z,21.94
2018-08-24T12:37:27.082Z,22.01
2018-08-24T12:38:27.076Z,22.01
2018-08-24T12:39:27.126Z,21.98
2018-08-24T12:40:27.050Z,22.00
2018-08-24T12:41:27.036Z,21.97
2018-08-24T12:42:27.028Z,22.03
2018-08-24T12:43:27.068Z,22.04
2018-08-24T12:44:27.044Z,22.04
2018-08-24T12:45:26.984Z,21.96
2018-08-24T12:46:27.010Z,21.97
2018-08-24T12:47:26.975Z,22.01
2018-08-24T12:48:26.980Z,22.01
2018-08-24T12:49:26.974Z,22.01
2018-08-24T12:50:26.940Z,21.93
2018-08-24T12:51:26.955Z,21.88
2018-08-24T12:52:26.916Z,21.94
2018-08-24T12:53:26.922Z,21.84